Nikolai, Alaska
Current Conditions -  °F | °C
As of 7:13 AM on Monday 24 Nov 2014 (Local Time) from PAFS Reporting Station
Light Snow Light Snow  
Wind Chill:   Ceiling: 2700
Heat Index:   Visibility: 6mi
Dew Point:   Wind: 0mph
Humidity: 73%   Direction: NA
Pressure: 29.71"   Gusts: NA
Location:  63.01°N, 154.38°W
Report Text: PAFS 241613Z AUTO 00000KT 6SM -SN FEW001 SCT011 BKN027 M13/M17 A2971 RMK AO2 TSNO P0000 $
Loading
Personal Weather Stations






























Interactive Weather Map New forecast layout! Learn more

10-Day Weather Forecast

Advertisements
Track Severe Weather on mobile